Time;durP1;ratioP1;P1;durP2;ratioP2;P2;SDS_P1;SDS_P2;PMS_P1;PMS_P2;Temp;Humidity;BMP_temperature;BMP_pressure;BME280_temperature;BME280_humidity;BME280_pressure;Samples;Min_cycle;Max_cycle;Signal;HPM_P1;HPM_P2
2022/09/14 00:02:14;;;;;;;23.85;21.33;;;;;;;15.48;77.96;99881.76;1674001;85;22140;-76
2022/09/14 00:04:59;;;;;;;27.32;21.23;;;;;;;15.48;77.99;99881.30;1672182;85;21402;-76
2022/09/14 00:07:45;;;;;;;23.25;20.37;;;;;;;15.50;78.03;99882.53;1652787;86;21576;-76
2022/09/14 00:10:30;;;;;;;25.20;20.82;;;;;;;15.50;78.09;99879.47;1652748;85;21082;-76
2022/09/14 00:13:15;;;;;;;23.57;21.07;;;;;;;15.51;78.17;99882.91;1651126;86;21088;-76
2022/09/14 00:16:08;;;;;;;23.77;20.95;;;;;;;15.54;78.19;99884.91;1651185;86;21115;-76
2022/09/14 00:18:59;;;;;;;29.65;20.65;;;;;;;15.55;78.22;99886.60;1661578;85;21544;-76
2022/09/14 00:21:43;;;;;;;23.55;20.10;;;;;;;15.58;78.24;99880.89;1653979;85;21532;-76
2022/09/14 00:24:30;;;;;;;24.35;20.25;;;;;;;15.58;78.23;99879.13;1676740;85;21009;-76
2022/09/14 00:27:15;;;;;;;22.77;19.70;;;;;;;15.58;78.29;99878.28;1678571;84;23723;-76
2022/09/14 00:30:00;;;;;;;23.55;19.70;;;;;;;15.56;78.36;99873.11;1669080;85;21016;-76
2022/09/14 00:32:45;;;;;;;24.18;20.08;;;;;;;15.55;78.37;99876.64;1656759;85;21064;-76
2022/09/14 00:35:30;;;;;;;23.10;18.25;;;;;;;15.54;78.44;99877.09;1651200;85;21071;-76
2022/09/14 00:38:15;;;;;;;22.35;19.30;;;;;;;15.56;78.44;99874.42;1651039;84;21496;-75
2022/09/14 00:41:02;;;;;;;26.00;19.48;;;;;;;15.55;78.48;99880.55;1656130;85;21100;-75
2022/09/14 00:44:03;;;;;;;22.82;18.82;;;;;;;15.55;78.51;99881.39;1658283;83;21028;-75
2022/09/14 00:46:52;;;;;;;19.82;17.30;;;;;;;15.54;78.52;99886.22;1699577;81;21108;-75
2022/09/14 00:49:40;;;;;;;23.25;17.10;;;;;;;15.52;78.55;99886.75;1681433;84;20903;-75
2022/09/14 00:52:29;;;;;;;22.35;18.15;;;;;;;15.52;78.53;99891.11;1667712;84;20949;-75
2022/09/14 00:55:19;;;;;;;18.80;16.42;;;;;;;15.50;78.57;99897.70;1700192;82;20949;-75
2022/09/14 00:58:04;;;;;;;20.37;16.55;;;;;;;15.50;78.57;99889.89;1673411;84;20946;-75
2022/09/14 01:00:48;;;;;;;18.27;16.20;;;;;;;15.50;78.60;99890.34;1680182;84;20954;-75
2022/09/14 01:03:33;;;;;;;22.55;15.72;;;;;;;15.48;78.62;99889.11;1683364;84;21441;-75
2022/09/14 01:06:41;;;;;;;20.57;16.57;;;;;;;15.47;78.62;99883.52;1680213;85;20945;-75
2022/09/14 01:09:44;;;;;;;18.60;15.68;;;;;;;15.45;78.62;99885.35;1679428;85;21404;-75
2022/09/14 01:13:02;;;;;;;16.60;14.83;;;;;;;15.43;78.63;99887.19;1660776;85;21056;-75
2022/09/14 01:16:11;;;;;;;21.35;15.48;;;;;;;15.40;78.66;99889.94;1655295;85;21520;-75
2022/09/14 01:19:01;;;;;;;28.87;15.80;;;;;;;15.35;78.67;99886.70;1650916;85;21113;-75
2022/09/14 01:21:49;;;;;;;16.62;14.30;;;;;;;15.31;78.67;99884.31;1651289;85;21064;-75
2022/09/14 01:24:45;;;;;;;17.87;14.90;;;;;;;15.29;78.70;99880.48;1672145;85;21064;-75
2022/09/14 01:27:42;;;;;;;18.35;14.55;;;;;;;15.28;78.75;99879.25;1678480;84;21053;-75
2022/09/14 01:30:31;;;;;;;19.15;14.87;;;;;;;15.24;78.75;99879.84;1669743;85;21321;-75
2022/09/14 01:33:27;;;;;;;18.00;13.38;;;;;;;15.22;78.76;99876.47;1669283;85;21037;-75
2022/09/14 01:36:15;;;;;;;20.60;15.60;;;;;;;15.21;78.77;99876.93;1677786;84;21033;-75
2022/09/14 01:39:01;;;;;;;18.00;13.90;;;;;;;15.18;78.78;99867.11;1652613;85;20975;-75
2022/09/14 01:41:49;;;;;;;16.45;13.95;;;;;;;15.15;78.78;99877.21;1652237;86;21064;-75
2022/09/14 01:44:38;;;;;;;16.93;13.80;;;;;;;15.12;78.79;99873.45;1656932;85;21073;-75
2022/09/14 01:47:40;;;;;;;17.00;13.48;;;;;;;15.09;78.79;99874.89;1638908;86;20909;-75
2022/09/14 01:50:32;;;;;;;19.77;14.40;;;;;;;15.06;78.81;99870.31;1668405;84;21056;-75
2022/09/14 01:53:38;;;;;;;17.35;13.85;;;;;;;15.03;78.80;99870.00;1700651;84;21101;-75
2022/09/14 01:56:34;;;;;;;18.52;14.40;;;;;;;14.99;78.81;99865.84;1679131;84;21100;-75
2022/09/14 01:59:27;;;;;;;22.55;15.20;;;;;;;14.94;78.85;99865.21;1646785;85;21052;-75
2022/09/14 02:02:16;;;;;;;20.23;14.58;;;;;;;14.92;78.86;99872.70;1668707;85;21049;-75
2022/09/14 02:05:16;;;;;;;16.52;14.73;;;;;;;14.90;78.88;99867.11;1664967;85;21100;-75
2022/09/14 02:08:01;;;;;;;20.20;14.50;;;;;;;14.87;78.91;99875.52;1652507;86;21417;-77
2022/09/14 02:10:46;;;;;;;18.48;15.03;;;;;;;14.84;78.92;99875.20;1651679;86;20985;-77
2022/09/14 02:13:32;;;;;;;17.05;14.38;;;;;;;14.84;78.93;99869.14;1652130;85;21128;-77
2022/09/14 02:16:20;;;;;;;17.70;14.80;;;;;;;14.80;78.90;99867.59;1633784;86;21731;-77
2022/09/14 02:19:05;;;;;;;16.75;13.72;;;;;;;14.75;78.94;99863.90;1652030;85;21071;-77
2022/09/14 02:21:50;;;;;;;18.82;14.85;;;;;;;14.71;78.97;99864.10;1656901;85;21112;-77
2022/09/14 02:24:36;;;;;;;17.67;13.65;;;;;;;14.67;78.94;99866.45;1660082;85;21523;-77
2022/09/14 02:27:22;;;;;;;15.95;13.83;;;;;;;14.60;78.95;99867.64;1660760;84;21042;-77
2022/09/14 02:30:09;;;;;;;15.35;13.75;;;;;;;14.57;79.01;99864.26;1662634;85;21090;-77
2022/09/14 02:33:17;;;;;;;17.02;14.13;;;;;;;14.52;79.02;99862.34;1655844;85;21418;-75
2022/09/14 02:36:10;;;;;;;17.82;14.30;;;;;;;14.49;79.04;99857.73;1655391;84;20962;-75
2022/09/14 02:39:00;;;;;;;18.55;14.83;;;;;;;14.45;79.02;99848.37;1648970;85;21407;-75
2022/09/14 02:41:56;;;;;;;16.07;13.40;;;;;;;14.41;79.01;99845.48;1660739;85;20906;-75
2022/09/14 02:45:07;;;;;;;14.75;13.32;;;;;;;14.36;79.06;99839.19;1678160;85;20954;-75
2022/09/14 02:47:58;;;;;;;14.80;11.75;;;;;;;14.33;79.05;99841.92;1652203;85;21048;-75
2022/09/14 02:50:50;;;;;;;14.80;13.10;;;;;;;14.30;79.08;99834.25;1652362;86;21064;-75
2022/09/14 02:53:50;;;;;;;14.10;11.53;;;;;;;14.27;79.04;99827.88;1660531;85;21025;-77
2022/09/14 02:56:37;;;;;;;18.17;11.75;;;;;;;14.24;79.05;99824.96;1662520;85;21545;-76
2022/09/14 02:59:21;;;;;;;15.00;10.35;;;;;;;14.19;79.09;99819.57;1665899;85;21544;-76
2022/09/14 03:02:07;;;;;;;14.60;11.20;;;;;;;14.17;79.08;99826.59;1681470;84;21116;-76
2022/09/14 03:04:52;;;;;;;12.98;10.95;;;;;;;14.14;79.10;99827.56;1675755;84;21060;-76
2022/09/14 03:07:37;;;;;;;14.15;11.15;;;;;;;14.11;79.07;99826.85;1668817;84;21034;-76
2022/09/14 03:10:22;;;;;;;13.30;10.98;;;;;;;14.06;79.08;99829.65;1679350;85;21040;-76
2022/09/14 03:13:07;;;;;;;14.70;10.50;;;;;;;14.03;79.10;99830.27;1679213;85;20981;-76
2022/09/14 03:15:53;;;;;;;11.55;10.45;;;;;;;13.99;79.09;99826.95;1652776;84;20993;-76
2022/09/14 03:18:38;;;;;;;11.55;9.93;;;;;;;13.96;79.12;99827.54;1657940;85;21037;-76
2022/09/14 03:21:23;;;;;;;13.48;9.00;;;;;;;13.90;79.11;99822.14;1673476;85;21089;-76
2022/09/14 03:24:08;;;;;;;15.68;10.08;;;;;;;13.88;79.13;99823.96;1667618;85;21049;-77
2022/09/14 03:26:53;;;;;;;8.73;7.72;;;;;;;13.85;79.14;99824.09;1678620;84;21632;-76
2022/09/14 03:29:38;;;;;;;10.45;8.15;;;;;;;13.81;79.10;99824.67;1679050;84;21076;-76
2022/09/14 03:32:24;;;;;;;9.43;7.95;;;;;;;13.77;79.13;99828.30;1678385;85;21556;-76
2022/09/14 03:35:09;;;;;;;12.70;7.97;;;;;;;13.73;79.09;99834.53;1679082;85;21104;-76
2022/09/14 03:37:54;;;;;;;8.93;8.03;;;;;;;13.70;79.13;99828.17;1679627;85;21049;-77
2022/09/14 03:40:39;;;;;;;8.28;7.47;;;;;;;13.65;79.07;99825.36;1674210;85;21013;-75
2022/09/14 03:43:25;;;;;;;12.40;9.03;;;;;;;13.59;79.12;99830.36;1668917;85;21112;-75
2022/09/14 03:46:14;;;;;;;12.15;7.87;;;;;;;13.57;79.16;99829.58;1652329;85;21143;-75
2022/09/14 03:48:59;;;;;;;9.85;7.55;;;;;;;13.54;79.12;99833.14;1658004;85;21056;-75
2022/09/14 03:51:44;;;;;;;11.83;7.42;;;;;;;13.51;79.16;99835.05;1674094;85;21465;-75
2022/09/14 03:54:30;;;;;;;12.68;7.62;;;;;;;13.48;79.17;99833.87;1674365;85;21053;-75
2022/09/14 03:57:15;;;;;;;11.57;7.80;;;;;;;13.45;79.16;99828.80;1678306;85;20988;-75
2022/09/14 04:00:01;;;;;;;7.77;6.97;;;;;;;13.41;79.13;99831.13;1666127;85;21000;-75
2022/09/14 04:02:45;;;;;;;8.15;6.87;;;;;;;13.38;79.18;99833.39;1656682;85;21523;-75
2022/09/14 04:05:31;;;;;;;7.60;6.65;;;;;;;13.35;79.19;99834.81;1664399;85;21052;-75
2022/09/14 04:08:16;;;;;;;7.83;6.17;;;;;;;13.32;79.17;99831.04;1676504;84;21052;-75
2022/09/14 04:11:07;;;;;;;9.40;6.62;;;;;;;13.31;79.23;99835.00;1677338;84;21120;-75
2022/09/14 04:13:53;;;;;;;7.80;6.00;;;;;;;13.30;79.19;99839.80;1673981;84;21470;-77
2022/09/14 04:16:39;;;;;;;7.43;6.57;;;;;;;13.27;79.20;99834.72;1646013;86;21125;-77
2022/09/14 04:19:24;;;;;;;11.45;6.17;;;;;;;13.27;79.24;99838.16;1621540;87;21526;-76
2022/09/14 04:22:09;;;;;;;8.30;5.80;;;;;;;13.25;79.24;99839.52;1613168;86;21553;-78
2022/09/14 04:24:54;;;;;;;12.15;6.03;;;;;;;13.24;79.22;99836.98;1672318;83;21155;-76
2022/09/14 04:27:39;;;;;;;6.75;6.15;;;;;;;13.22;79.19;99839.64;1676298;83;21596;-75
2022/09/14 04:30:25;;;;;;;8.28;6.20;;;;;;;13.19;79.20;99831.98;1674806;83;21128;-75
2022/09/14 04:33:10;;;;;;;8.45;5.83;;;;;;;13.18;79.25;99828.14;1676638;84;21624;-75
2022/09/14 04:36:00;;;;;;;7.85;5.55;;;;;;;13.18;79.25;99828.14;1675599;84;21048;-75
2022/09/14 04:38:46;;;;;;;6.97;5.62;;;;;;;13.18;79.28;99829.44;1677474;83;20969;-75
2022/09/14 04:41:31;;;;;;;10.48;6.00;;;;;;;13.17;79.27;99832.48;1679709;83;21124;-75
2022/09/14 04:44:16;;;;;;;8.07;4.97;;;;;;;13.17;79.28;99832.94;1679353;83;21338;-75
2022/09/14 04:47:01;;;;;;;8.13;4.75;;;;;;;13.13;79.30;99834.77;1642036;85;21138;-75
2022/09/14 04:49:46;;;;;;;7.17;4.62;;;;;;;13.16;79.35;99839.88;1644434;85;21081;-73
2022/09/14 04:52:31;;;;;;;5.08;4.45;;;;;;;13.17;79.30;99841.57;1646165;85;21451;-73
2022/09/14 04:55:17;;;;;;;7.25;4.25;;;;;;;13.20;79.34;99840.61;1644483;85;21688;-72
2022/09/14 04:58:03;;;;;;;6.65;4.30;;;;;;;13.22;79.36;99848.73;1643370;85;21649;-73
2022/09/14 05:00:48;;;;;;;5.70;4.17;;;;;;;13.27;79.33;99846.41;1619348;86;20983;-73
2022/09/14 05:03:34;;;;;;;6.95;3.95;;;;;;;13.30;79.39;99842.39;1649387;84;20966;-73
2022/09/14 05:06:23;;;;;;;6.12;4.05;;;;;;;13.34;79.42;99844.81;1640929;86;21474;-73
2022/09/14 05:09:15;;;;;;;6.58;4.10;;;;;;;13.36;79.37;99839.10;1648559;85;20951;-73
2022/09/14 05:12:00;;;;;;;11.65;4.00;;;;;;;13.40;79.42;99838.53;1620778;87;20979;-73
2022/09/14 05:14:45;;;;;;;4.58;3.62;;;;;;;13.45;79.43;99840.48;1639250;86;21034;-73
2022/09/14 05:17:34;;;;;;;9.23;4.17;;;;;;;13.46;79.42;99840.42;1635802;86;20903;-73
2022/09/14 05:20:18;;;;;;;10.30;4.00;;;;;;;13.53;79.46;99845.73;1622478;87;20979;-73
2022/09/14 05:23:03;;;;;;;6.55;3.20;;;;;;;13.55;79.45;99846.52;1648600;86;20946;-73
2022/09/14 05:25:54;;;;;;;13.35;4.12;;;;;;;13.60;79.45;99847.63;1648748;86;20926;-73
2022/09/14 05:28:40;;;;;;;8.33;3.72;;;;;;;13.67;79.49;99846.94;1646581;85;20974;-73
2022/09/14 05:31:27;;;;;;;12.50;4.83;;;;;;;13.71;79.44;99845.45;1647022;84;21002;-72
2022/09/14 05:34:12;;;;;;;14.60;4.75;;;;;;;13.74;79.37;99838.83;1630445;86;20967;-73
2022/09/14 05:36:57;;;;;;;14.65;4.85;;;;;;;13.79;79.49;99844.67;1659084;83;20923;-73
2022/09/14 05:39:42;;;;;;;11.60;4.17;;;;;;;13.85;79.50;99848.78;1691266;83;20921;-72
2022/09/14 05:42:27;;;;;;;9.10;4.37;;;;;;;13.91;79.50;99840.27;1696350;83;21364;-73
2022/09/14 05:45:12;;;;;;;8.40;3.80;;;;;;;13.98;79.54;99843.45;1664216;84;20987;-73
2022/09/14 05:48:05;;;;;;;11.38;3.45;;;;;;;14.04;79.49;99844.47;1645296;85;21502;-73
2022/09/14 05:50:59;;;;;;;9.23;2.92;;;;;;;14.13;79.54;99844.53;1676101;83;21000;-73
2022/09/14 05:53:50;;;;;;;8.20;2.70;;;;;;;14.18;79.46;99839.98;1677032;83;20949;-73
2022/09/14 05:56:35;;;;;;;5.17;2.40;;;;;;;14.29;79.53;99849.92;1686687;83;21014;-73
2022/09/14 05:59:20;;;;;;;6.75;2.42;;;;;;;14.36;79.46;99845.69;1691914;83;21404;-73
2022/09/14 06:02:05;;;;;;;5.60;2.40;;;;;;;14.47;79.49;99837.45;1662644;84;21054;-73
2022/09/14 06:04:51;;;;;;;8.38;2.60;;;;;;;14.66;79.68;99834.38;1666846;84;20942;-73
2022/09/14 06:07:35;;;;;;;8.00;2.65;;;;;;;15.02;79.72;99843.58;1672585;85;21742;-73
2022/09/14 06:10:21;;;;;;;8.23;2.98;;;;;;;15.45;79.69;99845.42;1673568;85;20905;-73
2022/09/14 06:13:06;;;;;;;6.65;2.58;;;;;;;15.88;79.52;99846.78;1674917;84;21374;-73
2022/09/14 06:15:51;;;;;;;6.50;2.50;;;;;;;16.18;79.46;99838.68;1676290;85;20950;-73
2022/09/14 06:18:38;;;;;;;6.55;2.15;;;;;;;16.58;79.51;99840.98;1672781;84;20925;-73
2022/09/14 06:21:24;;;;;;;6.78;1.80;;;;;;;17.21;79.40;99838.78;1677045;84;20914;-73
2022/09/14 06:24:11;;;;;;;4.10;1.70;;;;;;;17.21;79.40;99838.78;1667224;84;21398;-73
2022/09/14 06:26:56;;;;;;;5.80;1.62;;;;;;;17.59;79.25;99844.09;1675267;84;21431;-73
2022/09/14 06:29:41;;;;;;;4.85;1.52;;;;;;;18.04;79.03;99841.43;1676274;84;20945;-73
2022/09/14 06:32:32;;;;;;;6.20;1.67;;;;;;;18.37;78.85;99845.56;1647413;85;38065;-73
2022/09/14 06:35:17;;;;;;;5.20;1.70;;;;;;;18.62;78.66;99843.17;1665627;84;21108;-73
2022/09/14 06:38:02;;;;;;;2.75;1.50;;;;;;;18.94;78.73;99839.84;1672997;83;21123;-73
2022/09/14 06:40:56;;;;;;;6.87;1.47;;;;;;;19.16;78.49;99838.02;1674037;85;21053;-73
2022/09/14 06:43:42;;;;;;;5.40;1.32;;;;;;;19.38;78.38;99842.70;1672912;85;21602;-73
2022/09/14 06:46:30;;;;;;;7.70;2.15;;;;;;;19.71;78.46;99851.02;1671344;84;21049;-73
2022/09/14 06:49:19;;;;;;;5.08;1.40;;;;;;;20.19;78.31;99855.23;1671228;85;21060;-73
2022/09/14 06:52:02;;;;;;;4.50;1.10;;;;;;;20.62;78.26;99858.86;1673488;85;21096;-73
2022/09/14 06:54:47;;;;;;;4.67;1.60;;;;;;;21.15;78.03;99848.47;1674447;83;21624;-73
2022/09/14 06:57:32;;;;;;;6.42;1.40;;;;;;;21.64;77.99;99848.85;1667322;85;21096;-73
2022/09/14 07:00:18;;;;;;;2.10;1.50;;;;;;;22.09;78.05;99848.53;1676443;84;21053;-73
2022/09/14 07:03:03;;;;;;;4.12;1.85;;;;;;;22.48;77.34;99859.10;1672899;84;21341;-73
2022/09/14 07:05:48;;;;;;;7.45;1.67;;;;;;;23.07;77.48;99858.84;1674042;85;21116;-73
2022/09/14 07:08:34;;;;;;;5.37;1.50;;;;;;;23.80;77.13;99856.83;1662660;85;21084;-73
2022/09/14 07:11:24;;;;;;;5.33;1.47;;;;;;;24.29;76.34;99857.52;1675930;84;21045;-73
2022/09/14 07:14:10;;;;;;;3.83;1.20;;;;;;;24.53;76.07;99847.95;1665282;85;21073;-73
2022/09/14 07:16:55;;;;;;;4.33;1.37;;;;;;;24.97;76.02;99845.41;1680742;83;21116;-73
2022/09/14 07:19:41;;;;;;;5.55;1.47;;;;;;;25.57;75.57;99835.59;1671723;85;21057;-73
2022/09/14 07:22:27;;;;;;;2.85;0.98;;;;;;;26.11;74.87;99813.44;1669412;84;21656;-73
2022/09/14 07:25:12;;;;;;;4.05;0.93;;;;;;;26.76;74.10;99831.56;1689701;83;22235;-73
2022/09/14 07:27:59;;;;;;;3.90;1.50;;;;;;;26.91;73.82;99840.70;1680581;84;21081;-73
2022/09/14 07:30:44;;;;;;;6.67;1.67;;;;;;;27.27;73.57;99844.27;1674930;85;21125;-73
2022/09/14 07:33:29;;;;;;;4.08;1.40;;;;;;;27.72;72.48;99848.19;1676482;84;21154;-73
2022/09/14 07:36:14;;;;;;;4.00;1.20;;;;;;;27.79;71.83;99846.59;1666684;85;20909;-73
2022/09/14 07:39:00;;;;;;;7.15;2.10;;;;;;;27.39;71.81;99845.72;1673825;84;21100;-73
2022/09/14 07:41:45;;;;;;;4.47;1.47;;;;;;;27.69;71.88;99849.82;1671563;83;22191;-73
2022/09/14 07:44:30;;;;;;;5.62;1.32;;;;;;;27.24;70.75;99840.58;1676171;83;21274;-73
2022/09/14 07:47:15;;;;;;;3.95;1.10;;;;;;;27.15;70.88;99841.47;1666565;85;21130;-73
2022/09/14 07:50:00;;;;;;;4.97;1.37;;;;;;;26.59;70.00;99849.92;1672087;83;21033;-73
2022/09/14 07:52:50;;;;;;;5.55;1.72;;;;;;;26.09;70.23;99850.68;1681849;84;21533;-73
2022/09/14 07:55:39;;;;;;;8.28;2.00;;;;;;;26.71;69.92;99844.77;1673502;83;21099;-74
2022/09/14 07:58:25;;;;;;;4.78;1.55;;;;;;;27.68;67.51;99846.33;1686662;83;21025;-74
2022/09/14 08:01:13;;;;;;;3.98;1.55;;;;;;;28.63;67.46;99849.45;1672217;83;21085;-74
2022/09/14 08:04:02;;;;;;;4.28;1.30;;;;;;;27.84;66.51;99858.92;1681788;83;21331;-73
2022/09/14 08:06:48;;;;;;;6.22;1.55;;;;;;;27.21;66.47;99860.79;1668639;84;21121;-73
2022/09/14 08:09:33;;;;;;;6.45;2.08;;;;;;;26.80;66.52;99851.02;1678336;83;21050;-73
2022/09/14 08:12:18;;;;;;;4.20;1.62;;;;;;;26.85;66.44;99860.70;1680875;83;21120;-73
2022/09/14 08:15:04;;;;;;;5.80;1.70;;;;;;;27.56;65.81;99862.13;1689473;84;21089;-73
2022/09/14 08:17:49;;;;;;;5.65;2.47;;;;;;;27.85;64.61;99853.11;1659205;83;20898;-73
2022/09/14 08:20:34;;;;;;;4.78;1.72;;;;;;;27.87;65.15;99857.78;1674825;85;21374;-73
2022/09/14 08:23:19;;;;;;;8.05;1.62;;;;;;;28.27;64.01;99860.74;1676507;84;20898;-73
2022/09/14 08:26:17;;;;;;;4.72;1.30;;;;;;;27.36;63.85;99865.93;1676995;85;20950;-73
2022/09/14 08:29:03;;;;;;;5.72;1.45;;;;;;;27.03;64.14;99861.58;1676747;85;21882;-73
2022/09/14 08:31:50;;;;;;;4.90;1.80;;;;;;;27.12;63.29;99851.90;1668733;84;21193;-73
2022/09/14 08:34:35;;;;;;;3.83;1.62;;;;;;;26.49;63.56;99849.64;1656691;85;21016;-73
2022/09/14 08:37:21;;;;;;;3.65;1.27;;;;;;;25.97;63.43;99850.52;1676152;83;21399;-73
2022/09/14 08:40:09;;;;;;;3.93;1.20;;;;;;;25.49;63.40;99842.06;1674062;83;21027;-73
2022/09/14 08:42:57;;;;;;;5.15;1.55;;;;;;;24.98;63.12;99846.25;1665008;85;20969;-73
2022/09/14 08:45:43;;;;;;;5.30;1.70;;;;;;;24.41;63.11;99834.02;1666037;85;20982;-73
2022/09/14 08:48:33;;;;;;;3.87;1.55;;;;;;;24.02;62.73;99836.88;1664866;84;21461;-73
2022/09/14 08:51:18;;;;;;;5.08;1.90;;;;;;;23.60;62.59;99833.87;1673525;85;21458;-73
2022/09/14 08:54:03;;;;;;;6.50;1.10;;;;;;;23.24;62.41;99829.32;1676476;83;20916;-73
2022/09/14 08:57:00;;;;;;;4.95;1.50;;;;;;;23.01;62.23;99838.23;1677540;83;20946;-74
2022/09/14 08:59:53;;;;;;;6.12;1.52;;;;;;;22.73;61.82;99835.63;1655207;84;20929;-74
2022/09/14 09:03:16;;;;;;;3.58;1.30;;;;;;;22.34;61.64;99834.33;1677816;84;21444;-73
2022/09/14 09:06:14;;;;;;;8.28;1.50;;;;;;;22.00;61.38;99833.39;1663519;84;20949;-73
2022/09/14 09:09:23;;;;;;;7.45;1.40;;;;;;;21.67;61.32;99827.58;1677754;84;20923;-73
2022/09/14 09:12:18;;;;;;;4.28;1.57;;;;;;;21.47;61.18;99821.99;1667852;84;21113;-73
2022/09/14 09:15:25;;;;;;;5.83;1.20;;;;;;;21.25;61.04;99832.43;1678277;84;21141;-73
2022/09/14 09:18:37;;;;;;;7.75;1.30;;;;;;;21.03;60.84;99829.63;1658332;85;21089;-73
2022/09/14 09:21:43;;;;;;;3.58;1.32;;;;;;;20.84;60.75;99832.73;1638345;83;21077;-73
2022/09/14 09:24:24;;;;;;;4.17;1.17;;;;;;;20.62;60.63;99817.67;1669343;84;21350;-72
2022/09/14 09:27:14;;;;;;;5.67;1.70;;;;;;;20.52;60.57;99816.63;1667547;84;21489;-73
2022/09/14 09:30:00;;;;;;;4.87;1.22;;;;;;;20.47;60.43;99822.20;1657992;85;20987;-73
2022/09/14 09:32:46;;;;;;;7.12;1.10;;;;;;;20.44;60.34;99812.38;1672746;85;20978;-73
2022/09/14 09:35:32;;;;;;;6.42;1.35;;;;;;;20.44;60.35;99819.78;1687437;84;20925;-73
2022/09/14 09:38:23;;;;;;;4.03;1.10;;;;;;;20.44;60.04;99821.58;1659334;83;21391;-73
2022/09/14 09:41:20;;;;;;;6.22;1.12;;;;;;;20.30;60.00;99813.30;1679920;85;20910;-73
2022/09/14 09:44:09;;;;;;;3.80;1.07;;;;;;;20.26;60.06;99816.27;1655694;84;20923;-73
2022/09/14 09:47:00;;;;;;;2.98;0.98;;;;;;;20.27;59.95;99818.80;1681093;83;20938;-73
2022/09/14 09:49:45;;;;;;;5.72;1.22;;;;;;;20.22;59.67;99818.27;1709062;82;20918;-73
2022/09/14 09:52:31;;;;;;;3.62;1.25;;;;;;;20.12;59.70;99821.16;1703552;82;20961;-73
2022/09/14 09:55:22;;;;;;;6.08;1.60;;;;;;;20.04;59.72;99816.89;1675300;84;20934;-73
2022/09/14 09:58:37;;;;;;;4.55;1.02;;;;;;;20.00;59.73;99819.35;1684428;82;20914;-73
2022/09/14 10:01:32;;;;;;;6.22;1.60;;;;;;;19.97;59.68;99815.16;1671535;83;20945;-73
2022/09/14 10:04:21;;;;;;;3.42;1.10;;;;;;;19.95;59.61;99818.35;1694984;84;21466;-73
2022/09/14 10:07:11;;;;;;;1.90;0.93;;;;;;;19.87;59.47;99815.41;1679537;83;20966;-73
2022/09/14 10:10:12;;;;;;;7.30;1.35;;;;;;;19.77;59.48;99810.40;1698331;83;21022;-74
2022/09/14 10:12:57;;;;;;;4.70;1.70;;;;;;;19.77;59.43;99809.09;1661347;83;21128;-74
2022/09/14 10:15:43;;;;;;;3.62;1.35;;;;;;;19.78;59.50;99810.30;1678339;85;21096;-76
2022/09/14 10:18:29;;;;;;;5.87;1.40;;;;;;;19.84;59.50;99798.08;1698289;84;21100;-73
2022/09/14 10:21:16;;;;;;;;;;;;;;;19.88;59.45;99803.13;1701257;82;21573;-73
2022/09/14 10:24:06;;;;;;;6.80;1.67;;;;;;;19.81;59.20;99800.07;1689951;82;20203;-73
2022/09/14 10:26:51;;;;;;;5.87;1.40;;;;;;;19.77;59.35;99802.06;1663990;84;22435;-73
2022/09/14 10:29:42;;;;;;;6.78;1.30;;;;;;;19.74;59.35;99802.77;1655661;85;21095;-73
2022/09/14 10:32:30;;;;;;;5.03;1.50;;;;;;;19.73;59.40;99794.05;1676820;83;21085;-73
2022/09/14 10:35:16;;;;;;;4.30;1.20;;;;;;;19.68;59.35;99796.14;1698356;82;21052;-74
2022/09/14 10:38:28;;;;;;;4.95;1.45;;;;;;;19.62;59.31;99799.17;1678190;83;20981;-73
2022/09/14 10:41:18;;;;;;;4.87;1.30;;;;;;;19.57;59.33;99803.87;1665310;83;21033;-73
2022/09/14 10:44:20;;;;;;;7.70;1.75;;;;;;;19.55;59.33;99800.98;1676791;85;21105;-73
2022/09/14 10:47:46;;;;;;;3.12;1.22;;;;;;;19.50;59.22;99795.55;1676634;84;21544;-73
2022/09/14 10:50:48;;;;;;;5.35;1.72;;;;;;;19.46;59.25;99797.99;1640809;86;21090;-72
2022/09/14 10:54:19;;;;;;;5.08;1.10;;;;;;;19.44;59.25;99799.03;1685749;83;21077;-72
2022/09/14 10:57:16;;;;;;;3.25;1.37;;;;;;;19.40;59.25;99787.07;1673888;83;21101;-72
2022/09/14 11:00:11;;;;;;;5.92;2.10;;;;;;;19.33;59.27;99782.70;1633165;86;21401;-72
2022/09/14 11:03:50;;;;;;;3.80;1.02;;;;;;;19.24;59.22;99785.91;1685305;83;21056;-72
2022/09/14 11:06:49;;;;;;;3.55;1.40;;;;;;;19.20;59.25;99790.17;1462659;89;10000398;-72
2022/09/14 11:10:03;;;;;;;4.72;1.47;;;;;;;19.16;59.23;99779.89;1548071;90;21108;-72
2022/09/14 11:13:22;;;;;;;3.00;1.20;;;;;;;19.11;59.19;99781.96;1567904;89;21229;-72
2022/09/14 11:16:33;;;;;;;6.53;1.27;;;;;;;19.06;59.20;99781.42;1568111;90;21589;-72
2022/09/14 11:19:50;;;;;;;7.87;1.42;;;;;;;19.07;59.24;99783.09;1586546;89;21088;-72
2022/09/14 11:23:05;;;;;;;4.45;1.35;;;;;;;19.11;59.25;99777.19;1581132;88;21101;-72
2022/09/14 11:25:58;;;;;;;6.53;1.80;;;;;;;19.07;59.19;99772.62;1567094;90;21121;-72
2022/09/14 11:29:08;;;;;;;5.83;1.75;;;;;;;19.02;59.21;99775.16;1577603;89;21103;-72
2022/09/14 11:32:02;;;;;;;3.20;1.85;;;;;;;19.02;59.24;99772.07;1572828;89;21097;-72
2022/09/14 11:34:58;;;;;;;4.62;1.30;;;;;;;19.08;59.26;99769.53;1572881;89;21649;-72
2022/09/14 11:37:57;;;;;;;5.65;1.35;;;;;;;19.07;59.21;99759.52;1653973;83;21852;-72
2022/09/14 11:41:10;;;;;;;3.52;0.95;;;;;;;19.05;59.17;99770.56;1657831;84;20980;-72
2022/09/14 11:44:12;;;;;;;5.90;1.62;;;;;;;19.07;59.21;99764.75;1688654;83;20905;-72
2022/09/14 11:47:17;;;;;;;7.92;1.40;;;;;;;19.15;59.18;99746.76;1687523;84;21413;-72
2022/09/14 11:50:23;;;;;;;4.47;1.50;;;;;;;19.20;59.16;99746.92;1661218;84;21323;-72
2022/09/14 11:53:16;;;;;;;4.78;1.50;;;;;;;19.25;59.19;99743.50;1686782;83;20897;-72
2022/09/14 11:56:01;;;;;;;8.93;2.05;;;;;;;19.32;59.20;99751.34;1683143;83;20906;-72
2022/09/14 11:58:46;;;;;;;2.75;1.32;;;;;;;19.35;59.18;99749.35;1685197;84;20915;-73
2022/09/14 12:01:38;;;;;;;3.72;1.55;;;;;;;19.43;59.22;99746.23;1683699;84;20909;-73
2022/09/14 12:04:23;;;;;;;3.75;1.30;;;;;;;19.48;59.25;99745.45;1675653;84;20961;-72
2022/09/14 12:07:07;;;;;;;3.58;1.20;;;;;;;19.54;59.29;99749.02;1679939;83;21292;-72
2022/09/14 12:09:52;;;;;;;4.92;2.05;;;;;;;19.62;59.24;99748.03;1675168;85;21470;-72
2022/09/14 12:12:40;;;;;;;4.67;1.50;;;;;;;19.69;59.28;99734.87;1677847;84;20953;-72
2022/09/14 12:15:30;;;;;;;5.97;1.40;;;;;;;19.69;59.17;99741.90;1676187;84;21835;-72
2022/09/14 12:18:20;;;;;;;4.90;1.65;;;;;;;19.72;59.27;99749.56;1680840;84;21421;-72
2022/09/14 12:21:24;;;;;;;7.40;2.10;;;;;;;19.74;59.23;99743.27;1676915;84;21319;-72
2022/09/14 12:24:20;;;;;;;10.90;1.50;;;;;;;19.82;59.28;99739.63;1676085;83;20938;-72
2022/09/14 12:27:23;;;;;;;3.40;1.40;;;;;;;19.87;59.26;99741.09;1657616;84;21055;-72
2022/09/14 12:30:43;;;;;;;2.87;1.40;;;;;;;19.88;59.21;99744.09;1672246;85;20926;-72
2022/09/14 12:33:36;;;;;;;3.02;1.22;;;;;;;19.88;59.15;99742.77;1673704;84;20937;-72
2022/09/14 12:36:38;;;;;;;3.12;1.60;;;;;;;19.97;59.23;99748.70;1677089;85;21448;-72
2022/09/14 12:39:27;;;;;;;4.33;2.22;;;;;;;20.03;59.15;99739.10;1672518;83;21282;-72
2022/09/14 12:42:26;;;;;;;4.72;1.60;;;;;;;20.04;59.07;99736.84;1676081;85;21380;-72
2022/09/14 12:45:49;;;;;;;4.50;1.30;;;;;;;20.02;59.01;99747.92;1680695;84;21394;-72
2022/09/14 12:48:53;;;;;;;2.80;1.25;;;;;;;19.95;58.85;99740.94;1686337;84;20984;-72
2022/09/14 12:51:46;;;;;;;5.28;1.42;;;;;;;19.86;58.89;99732.38;1674013;83;20921;-72
2022/09/14 12:54:45;;;;;;;6.17;1.30;;;;;;;19.76;58.79;99726.92;1683369;83;21012;-72
2022/09/14 12:57:41;;;;;;;2.65;1.20;;;;;;;19.70;58.85;99719.97;1696775;83;20993;-72
2022/09/14 13:00:29;;;;;;;5.62;1.70;;;;;;;19.62;58.80;99717.87;1690123;83;21503;-72
2022/09/14 13:03:29;;;;;;;5.08;1.42;;;;;;;19.56;58.79;99719.59;1657327;84;20945;-72
2022/09/14 13:06:14;;;;;;;6.45;1.40;;;;;;;19.54;58.81;99718.02;1675756;84;20921;-72
2022/09/14 13:09:00;;;;;;;5.55;1.60;;;;;;;19.52;58.81;99717.27;1672383;83;20949;-72
2022/09/14 13:11:57;;;;;;;5.40;2.02;;;;;;;19.49;58.74;99724.38;1677681;83;21589;-72
2022/09/14 13:14:55;;;;;;;5.37;2.00;;;;;;;19.47;58.76;99721.48;1687254;83;21439;-72
2022/09/14 13:18:00;;;;;;;4.65;1.95;;;;;;;19.42;58.75;99717.86;1664926;84;20966;-72
2022/09/14 13:20:57;;;;;;;5.03;1.60;;;;;;;19.41;58.76;99720.58;1673511;85;20943;-72